»·PEaware :: JBU727 LIRF-LGMK

JBU727 :: LIRF-LGMK

FLIGHT INFORMATION

Flight Status: Arrived
Operator:
JetBlue Airways
More flights by this operator :: More flights under this callsign
Pilot: Anonymous 5323 (5323)
Aircraft: AIRBUS A320
(A320)
More flights by this aircraft type
Origin: LIRF Fiumicino
Italy
Destination: LGMK Mikonos
Greece
More flights between these airports :: More routes between these airports
Route: SIPRO UZ803 TEA UL995 EKTOL UT75 TIGRA UL995 KRK UL53 KOR UN604 ATV UL607 KEA UL995 VARIX
File this flight plan on PilotEdge
Remarks:
Altitude:
(Current/Filed)
35,000ft
Speed:
(Current/Filed)
480kts
Departed: 04-Oct-15 10:13 AM
Arrived: 04-Oct-15 11:48 AM
Distance/Time
Traveled:
659nm/1:34
Distance/Time
To Go:
Arrived

Flight Plot

Page will automatically refresh every two minutes.


Map Options




Map Legend


Flown Route
Filed Route
Departure Airport
Arrival Airport
Navaid (VOR, NDB)
Fix

Horizontal Profiles

Position Reports

Time Latitude Longitude Heading Altitude Ground
Speed
04-Oct-15 09:58 41.796887 12.256154 294 23ft 0kts
04-Oct-15 09:59 41.796887 12.256154 294 23ft 0kts
04-Oct-15 10:00 41.796887 12.256154 294 23ft 0kts
04-Oct-15 10:01 41.796887 12.256154 294 23ft 0kts
04-Oct-15 10:02 41.796887 12.256154 294 23ft 0kts
04-Oct-15 10:03 41.796887 12.256154 294 23ft 0kts
04-Oct-15 10:04 41.796887 12.256154 294 23ft 0kts
04-Oct-15 10:05 41.796887 12.256154 294 23ft 0kts
04-Oct-15 10:06 41.796887 12.256154 294 23ft 0kts
04-Oct-15 10:07 41.796887 12.256154 294 23ft 0kts
04-Oct-15 10:08 41.796887 12.256154 294 23ft 0kts
04-Oct-15 10:09 41.796887 12.256154 294 23ft 0kts
04-Oct-15 10:10 41.796887 12.256154 294 23ft 0kts
04-Oct-15 10:11 41.796887 12.256154 294 23ft 0kts
04-Oct-15 10:12 41.796887 12.256154 294 23ft 0kts
04-Oct-15 10:13 41.796351 12.256780 32 23ft 0kts
04-Oct-15 10:14 41.796309 12.256744 32 23ft 0kts
04-Oct-15 10:15 41.796309 12.256744 32 23ft 0kts
04-Oct-15 10:16 41.796309 12.256744 32 23ft 0kts
04-Oct-15 10:17 41.798185 12.257881 23 24ft 13kts
04-Oct-15 10:18 41.802820 12.260754 24 24ft 19kts
04-Oct-15 10:19 41.805180 12.267411 72 23ft 19kts
04-Oct-15 10:20 41.808503 12.272117 11 24ft 21kts
04-Oct-15 10:21 41.813913 12.270276 342 23ft 20kts
04-Oct-15 10:22 41.818989 12.268183 341 23ft 21kts
04-Oct-15 10:23 41.824242 12.265984 343 24ft 23kts
04-Oct-15 10:24 41.829664 12.263708 342 23ft 19kts
04-Oct-15 10:25 41.829993 12.263569 342 23ft 0kts
04-Oct-15 10:26 41.831574 12.264141 85 24ft 5kts
04-Oct-15 10:27 41.810141 12.277955 127 997ft 159kts
04-Oct-15 10:28 41.787644 12.345723 110 2666ft 257kts
04-Oct-15 10:29 41.763988 12.436332 107 6300ft 267kts
04-Oct-15 10:30 41.739984 12.531995 108 9577ft 276kts
04-Oct-15 10:31 41.712746 12.640641 108 10745ft 356kts
04-Oct-15 10:32 41.679127 12.774305 109 13007ft 396kts
04-Oct-15 10:33 41.643185 12.916409 110 15851ft 413kts
04-Oct-15 10:34 41.605945 13.062701 111 18074ft 431kts
04-Oct-15 10:35 41.567527 13.214555 112 19791ft 447kts
04-Oct-15 10:36 41.526439 13.374191 112 21285ft 462kts
04-Oct-15 10:37 41.483706 13.538862 112 22720ft 478kts
04-Oct-15 10:38 41.433884 13.703732 128 24101ft 485kts
04-Oct-15 10:39 41.357082 13.853161 128 25915ft 491kts
04-Oct-15 10:40 41.291297 14.011720 104 27544ft 506kts
04-Oct-15 10:41 41.262652 14.194238 103 28961ft 509kts
04-Oct-15 10:42 41.234107 14.378894 103 30119ft 513kts
04-Oct-15 10:43 41.205128 14.564078 102 31050ft 519kts
04-Oct-15 10:44 41.175445 14.752023 101 32066ft 521kts
04-Oct-15 10:45 41.145500 14.939933 101 33039ft 521kts
04-Oct-15 10:46 41.114815 15.127311 101 33803ft 522kts
04-Oct-15 10:47 41.072469 15.310805 108 34533ft 522kts
04-Oct-15 10:48 41.025785 15.492783 108 35171ft 516kts
04-Oct-15 10:49 40.979074 15.673648 108 35181ft 520kts
04-Oct-15 10:50 40.932144 15.854012 108 35184ft 520kts
04-Oct-15 10:51 40.884913 16.034195 108 35185ft 518kts
04-Oct-15 10:52 40.838035 16.213463 109 35184ft 518kts
04-Oct-15 10:53 40.798285 16.363194 109 35188ft 518kts
04-Oct-15 10:54 40.750647 16.541234 109 35209ft 516kts
04-Oct-15 10:55 40.702690 16.719173 109 35211ft 516kts
04-Oct-15 10:56 40.654348 16.897270 109 35212ft 516kts
04-Oct-15 10:57 40.605802 17.074854 109 35209ft 516kts
04-Oct-15 10:58 40.557721 17.251269 109 35187ft 518kts
04-Oct-15 10:59 40.508380 17.429360 109 35184ft 518kts
04-Oct-15 11:00 40.458704 17.607302 109 35184ft 518kts
04-Oct-15 11:01 40.409398 17.782284 109 35184ft 518kts
04-Oct-15 11:02 40.359344 17.959105 109 35184ft 518kts
04-Oct-15 11:03 40.309231 18.135439 109 35182ft 518kts
04-Oct-15 11:04 40.258719 18.312766 110 35183ft 518kts
04-Oct-15 11:05 40.207919 18.488647 110 35183ft 518kts
04-Oct-15 11:06 40.156896 18.664092 110 35184ft 518kts
04-Oct-15 11:07 40.108982 18.827787 110 35184ft 518kts
04-Oct-15 11:08 40.055533 19.001895 121 35178ft 517kts
04-Oct-15 11:09 39.970806 19.152707 127 35184ft 517kts
04-Oct-15 11:10 39.885996 19.302986 127 35184ft 517kts
04-Oct-15 11:11 39.800726 19.453019 127 35184ft 517kts
04-Oct-15 11:12 39.715293 19.602621 127 35184ft 517kts
04-Oct-15 11:13 39.629464 19.752209 127 35184ft 517kts
04-Oct-15 11:14 39.545546 19.897787 127 35185ft 517kts
04-Oct-15 11:15 39.459974 20.045548 127 35185ft 517kts
04-Oct-15 11:16 39.379717 20.199793 124 35153ft 516kts
04-Oct-15 11:17 39.301316 20.354056 124 35089ft 512kts
04-Oct-15 11:18 39.222919 20.507173 124 35154ft 514kts
04-Oct-15 11:19 39.143908 20.661039 124 35184ft 515kts
04-Oct-15 11:20 39.065225 20.813573 124 35184ft 515kts
04-Oct-15 11:21 38.985783 20.966842 124 35184ft 515kts
04-Oct-15 11:22 38.906442 21.118708 124 35182ft 515kts
04-Oct-15 11:23 38.827261 21.270984 125 35188ft 515kts
04-Oct-15 11:24 38.747427 21.422801 125 35207ft 516kts
04-Oct-15 11:25 38.667206 21.574623 125 35211ft 516kts
04-Oct-15 11:26 38.586759 21.726162 125 35211ft 516kts
04-Oct-15 11:27 38.505908 21.877236 125 35212ft 516kts
04-Oct-15 11:28 38.424799 22.028082 125 35212ft 516kts
04-Oct-15 11:29 38.344010 22.178989 125 35209ft 516kts
04-Oct-15 11:30 38.262635 22.329141 125 35210ft 516kts
04-Oct-15 11:31 38.182059 22.477307 125 35193ft 515kts
04-Oct-15 11:32 38.100894 22.625670 125 35184ft 502kts
04-Oct-15 11:33 38.024507 22.764562 125 35141ft 464kts
04-Oct-15 11:34 37.951397 22.897734 125 33236ft 463kts
04-Oct-15 11:35 37.925324 23.055318 94 30089ft 465kts
04-Oct-15 11:36 37.917711 23.217320 95 28191ft 446kts
04-Oct-15 11:37 37.910511 23.372008 96 25835ft 438kts
04-Oct-15 11:38 37.903082 23.523240 97 25180ft 415kts
04-Oct-15 11:39 37.895843 23.669177 97 25200ft 418kts
04-Oct-15 11:40 37.886681 23.790935 113 25201ft 410kts
04-Oct-15 11:41 37.809427 23.921976 134 25213ft 398kts
04-Oct-15 11:42 37.738411 24.028653 134 25213ft 397kts
04-Oct-15 11:43 37.681281 24.113992 135 25211ft 397kts
04-Oct-15 11:44 37.610302 24.220469 135 25208ft 397kts
04-Oct-15 11:45 37.548974 24.335356 113 25163ft 408kts
04-Oct-15 11:46 37.512886 24.469520 112 24405ft 398kts
04-Oct-15 11:47 37.478337 24.599730 117 23044ft 393kts
04-Oct-15 11:48 37.433718 24.710402 91 19894ft 364kts
04-Oct-15 11:49 37.437092 24.831547 91 16780ft 337kts
04-Oct-15 11:50 37.447097 24.943722 95 13655ft 316kts
04-Oct-15 11:51 37.441581 25.049818 94 11142ft 282kts
04-Oct-15 11:52 37.435921 25.134223 110 9613ft 253kts
04-Oct-15 11:53 37.378462 25.182265 150 7292ft 257kts
04-Oct-15 11:54 37.315557 25.223254 150 5078ft 257kts
04-Oct-15 11:55 37.261513 25.274792 95 3087ft 255kts
04-Oct-15 11:56 37.272815 25.353249 75 2990ft 220kts
04-Oct-15 11:57 37.286505 25.424280 49 2987ft 184kts
04-Oct-15 11:58 37.324829 25.411481 319 2976ft 143kts
04-Oct-15 11:59 37.356172 25.382536 340 2030ft 139kts
04-Oct-15 12:00 37.392688 25.367390 338 1159ft 137kts
04-Oct-15 12:01 37.428447 25.351147 339 434ft 133kts
04-Oct-15 12:02 37.443032 25.344981 335 411ft 18kts
04-Oct-15 12:03 37.437909 25.346895 160 412ft 27kts

Navigation Log

Ident Type
1. LIRF Airport
2. SIPRO Fix
3. TEA Navaid
4. AKAMO Fix
5. AMSOR Fix
6. EKTOL Fix
7. TIGRA Fix
8. KRK Navaid
9. PARNA Fix
10. GARTA Fix
11. ELVAS Fix
12. IXONI Fix
13. PIKAD Fix
14. KOR Navaid
15. ATV Navaid
16. KEA Navaid
17. VARIX Fix
18. LGMK Airport